sensor_id;sensor_type;location;lat;lon;timestamp;temperature;humidity
20670;DHT22;10494;50.868;4.180;2023-04-03T02:01:36;3.40;99.90
20670;DHT22;10494;50.868;4.180;2023-04-03T02:04:02;3.40;99.90
20670;DHT22;10494;50.868;4.180;2023-04-03T02:06:28;3.20;99.90
20670;DHT22;10494;50.868;4.180;2023-04-03T02:08:53;3.20;99.90
20670;DHT22;10494;50.868;4.180;2023-04-03T02:11:19;3.20;99.90
20670;DHT22;10494;50.868;4.180;2023-04-03T02:13:45;3.20;99.90
20670;DHT22;10494;50.868;4.180;2023-04-03T02:16:11;3.20;99.90
20670;DHT22;10494;50.868;4.180;2023-04-03T02:18:37;3.20;99.90
20670;DHT22;10494;50.868;4.180;2023-04-03T02:21:03;3.20;99.90
20670;DHT22;10494;50.868;4.180;2023-04-03T02:23:29;3.20;99.90
20670;DHT22;10494;50.868;4.180;2023-04-03T02:26:06;3.10;99.90
20670;DHT22;10494;50.868;4.180;2023-04-03T02:28:32;3.20;99.90
20670;DHT22;10494;50.868;4.180;2023-04-03T02:30:57;3.20;99.90
20670;DHT22;10494;50.868;4.180;2023-04-03T02:33:23;3.30;99.90
20670;DHT22;10494;50.868;4.180;2023-04-03T02:35:53;3.30;99.90
20670;DHT22;10494;50.868;4.180;2023-04-03T02:38:19;3.30;99.90
20670;DHT22;10494;50.868;4.180;2023-04-03T02:40:44;3.20;99.90
20670;DHT22;10494;50.868;4.180;2023-04-03T02:43:10;3.20;99.90
20670;DHT22;10494;50.868;4.180;2023-04-03T02:45:35;3.20;99.90
20670;DHT22;10494;50.868;4.180;2023-04-03T02:48:01;3.20;99.90
20670;DHT22;10494;50.868;4.180;2023-04-03T02:50:27;3.20;99.90
20670;DHT22;10494;50.868;4.180;2023-04-03T02:52:52;3.20;99.90
20670;DHT22;10494;50.868;4.180;2023-04-03T02:55:18;3.20;99.90
20670;DHT22;10494;50.868;4.180;2023-04-03T02:57:43;3.30;99.90
20670;DHT22;10494;50.868;4.180;2023-04-03T03:00:09;3.30;99.90
20670;DHT22;10494;50.868;4.180;2023-04-03T03:02:35;3.40;99.90
20670;DHT22;10494;50.868;4.180;2023-04-03T03:05:01;3.40;99.90
20670;DHT22;10494;50.868;4.180;2023-04-03T03:07:26;3.40;99.90
20670;DHT22;10494;50.868;4.180;2023-04-03T03:09:52;3.40;99.90
20670;DHT22;10494;50.868;4.180;2023-04-03T03:12:18;3.30;99.90
20670;DHT22;10494;50.868;4.180;2023-04-03T03:14:47;3.10;99.90
20670;DHT22;10494;50.868;4.180;2023-04-03T03:17:13;3.00;99.90
20670;DHT22;10494;50.868;4.180;2023-04-03T03:19:38;2.80;99.90
20670;DHT22;10494;50.868;4.180;2023-04-03T03:22:04;2.90;99.90
20670;DHT22;10494;50.868;4.180;2023-04-03T03:24:29;2.80;99.90
20670;DHT22;10494;50.868;4.180;2023-04-03T03:26:55;2.80;99.90
20670;DHT22;10494;50.868;4.180;2023-04-03T03:29:21;2.80;99.90
20670;DHT22;10494;50.868;4.180;2023-04-03T03:31:47;2.70;99.90
20670;DHT22;10494;50.868;4.180;2023-04-03T03:34:12;2.80;99.90
20670;DHT22;10494;50.868;4.180;2023-04-03T03:36:38;2.70;99.90
20670;DHT22;10494;50.868;4.180;2023-04-03T03:39:04;2.70;99.90
20670;DHT22;10494;50.868;4.180;2023-04-03T03:41:29;2.60;99.90
20670;DHT22;10494;50.868;4.180;2023-04-03T03:43:55;2.60;99.90
20670;DHT22;10494;50.868;4.180;2023-04-03T03:46:20;2.60;99.90
20670;DHT22;10494;50.868;4.180;2023-04-03T03:48:46;2.50;99.90
20670;DHT22;10494;50.868;4.180;2023-04-03T03:51:12;2.50;99.90
20670;DHT22;10494;50.868;4.180;2023-04-03T03:53:37;2.50;99.90
20670;DHT22;10494;50.868;4.180;2023-04-03T03:56:03;2.40;99.90
20670;DHT22;10494;50.868;4.180;2023-04-03T03:58:30;2.40;99.90
20670;DHT22;10494;50.868;4.180;2023-04-03T04:00:55;2.40;99.90
20670;DHT22;10494;50.868;4.180;2023-04-03T04:03:21;2.30;99.90
20670;DHT22;10494;50.868;4.180;2023-04-03T04:05:46;2.30;99.90
20670;DHT22;10494;50.868;4.180;2023-04-03T04:08:12;2.30;99.90
20670;DHT22;10494;50.868;4.180;2023-04-03T04:10:38;2.30;99.90
20670;DHT22;10494;50.868;4.180;2023-04-03T04:13:03;2.30;99.90
20670;DHT22;10494;50.868;4.180;2023-04-03T04:15:29;2.20;99.90
20670;DHT22;10494;50.868;4.180;2023-04-03T04:17:55;2.20;99.90
20670;DHT22;10494;50.868;4.180;2023-04-03T04:20:21;2.20;99.90
20670;DHT22;10494;50.868;4.180;2023-04-03T04:22:46;2.20;99.90
20670;DHT22;10494;50.868;4.180;2023-04-03T04:25:12;2.20;99.90
20670;DHT22;10494;50.868;4.180;2023-04-03T04:27:37;2.10;99.90
20670;DHT22;10494;50.868;4.180;2023-04-03T04:30:04;2.20;99.90
20670;DHT22;10494;50.868;4.180;2023-04-03T04:32:29;2.10;99.90
20670;DHT22;10494;50.868;4.180;2023-04-03T04:34:55;2.00;99.90
20670;DHT22;10494;50.868;4.180;2023-04-03T04:37:21;1.90;99.90
20670;DHT22;10494;50.868;4.180;2023-04-03T04:39:46;1.90;99.90
20670;DHT22;10494;50.868;4.180;2023-04-03T04:42:12;1.90;99.90
20670;DHT22;10494;50.868;4.180;2023-04-03T04:44:38;1.90;99.90
20670;DHT22;10494;50.868;4.180;2023-04-03T04:47:04;1.90;99.90
20670;DHT22;10494;50.868;4.180;2023-04-03T04:49:30;2.10;99.90
20670;DHT22;10494;50.868;4.180;2023-04-03T04:51:56;2.20;99.90
20670;DHT22;10494;50.868;4.180;2023-04-03T04:54:21;2.30;99.90
20670;DHT22;10494;50.868;4.180;2023-04-03T04:56:48;2.30;99.90
20670;DHT22;10494;50.868;4.180;2023-04-03T04:59:14;2.30;99.90
20670;DHT22;10494;50.868;4.180;2023-04-03T05:01:39;2.40;99.90
20670;DHT22;10494;50.868;4.180;2023-04-03T05:04:05;2.40;99.90
20670;DHT22;10494;50.868;4.180;2023-04-03T05:06:31;2.40;99.90
20670;DHT22;10494;50.868;4.180;2023-04-03T05:08:57;2.40;99.90
20670;DHT22;10494;50.868;4.180;2023-04-03T05:11:23;2.40;99.90
20670;DHT22;10494;50.868;4.180;2023-04-03T05:13:49;2.40;99.90
20670;DHT22;10494;50.868;4.180;2023-04-03T05:16:15;2.40;99.90
20670;DHT22;10494;50.868;4.180;2023-04-03T05:18:40;2.40;99.90
20670;DHT22;10494;50.868;4.180;2023-04-03T05:21:06;2.40;99.90
20670;DHT22;10494;50.868;4.180;2023-04-03T05:23:31;2.40;99.90
20670;DHT22;10494;50.868;4.180;2023-04-03T05:25:57;2.40;99.90
20670;DHT22;10494;50.868;4.180;2023-04-03T05:28:23;2.40;99.90
20670;DHT22;10494;50.868;4.180;2023-04-03T05:30:56;2.40;99.90
20670;DHT22;10494;50.868;4.180;2023-04-03T05:33:23;2.40;99.90
20670;DHT22;10494;50.868;4.180;2023-04-03T05:35:49;2.40;99.90
20670;DHT22;10494;50.868;4.180;2023-04-03T05:38:15;2.40;99.90
20670;DHT22;10494;50.868;4.180;2023-04-03T05:40:41;2.40;99.90
20670;DHT22;10494;50.868;4.180;2023-04-03T05:43:06;2.50;99.90
20670;DHT22;10494;50.868;4.180;2023-04-03T05:45:32;2.60;99.90
20670;DHT22;10494;50.868;4.180;2023-04-03T05:47:57;2.60;99.90
20670;DHT22;10494;50.868;4.180;2023-04-03T05:50:23;2.60;99.90
20670;DHT22;10494;50.868;4.180;2023-04-03T05:52:51;2.80;99.90
20670;DHT22;10494;50.868;4.180;2023-04-03T05:55:17;2.90;99.90
20670;DHT22;10494;50.868;4.180;2023-04-03T05:57:43;3.10;99.90
20670;DHT22;10494;50.868;4.180;2023-04-03T06:00:13;3.40;99.90
20670;DHT22;10494;50.868;4.180;2023-04-03T06:02:41;3.70;99.90
20670;DHT22;10494;50.868;4.180;2023-04-03T06:05:08;3.80;99.90
20670;DHT22;10494;50.868;4.180;2023-04-03T06:07:34;3.90;99.90
20670;DHT22;10494;50.868;4.180;2023-04-03T06:10:00;4.00;99.90
20670;DHT22;10494;50.868;4.180;2023-04-03T06:12:27;4.00;99.90
20670;DHT22;10494;50.868;4.180;2023-04-03T06:14:54;4.10;99.90
20670;DHT22;10494;50.868;4.180;2023-04-03T06:17:20;4.30;99.90
20670;DHT22;10494;50.868;4.180;2023-04-03T06:19:46;4.50;99.90
20670;DHT22;10494;50.868;4.180;2023-04-03T06:22:11;4.80;99.90
20670;DHT22;10494;50.868;4.180;2023-04-03T06:24:38;5.00;99.90
20670;DHT22;10494;50.868;4.180;2023-04-03T06:27:04;5.30;99.90
20670;DHT22;10494;50.868;4.180;2023-04-03T06:29:30;5.50;99.90
20670;DHT22;10494;50.868;4.180;2023-04-03T06:31:56;5.60;99.90
20670;DHT22;10494;50.868;4.180;2023-04-03T06:34:21;5.60;99.90
20670;DHT22;10494;50.868;4.180;2023-04-03T06:36:47;5.60;99.90
20670;DHT22;10494;50.868;4.180;2023-04-03T06:39:16;5.70;99.90
20670;DHT22;10494;50.868;4.180;2023-04-03T06:41:43;5.50;99.90
20670;DHT22;10494;50.868;4.180;2023-04-03T06:44:09;5.60;99.90
20670;DHT22;10494;50.868;4.180;2023-04-03T06:46:37;5.60;99.90
20670;DHT22;10494;50.868;4.180;2023-04-03T06:49:03;5.60;99.90
20670;DHT22;10494;50.868;4.180;2023-04-03T06:51:30;5.70;99.90
20670;DHT22;10494;50.868;4.180;2023-04-03T06:53:57;5.70;99.90
20670;DHT22;10494;50.868;4.180;2023-04-03T06:56:24;5.70;99.90
20670;DHT22;10494;50.868;4.180;2023-04-03T06:58:51;5.70;99.90
20670;DHT22;10494;50.868;4.180;2023-04-03T07:01:17;5.80;99.90
20670;DHT22;10494;50.868;4.180;2023-04-03T07:03:45;5.90;99.90
20670;DHT22;10494;50.868;4.180;2023-04-03T07:06:12;5.90;99.90
20670;DHT22;10494;50.868;4.180;2023-04-03T07:08:39;5.60;99.90
20670;DHT22;10494;50.868;4.180;2023-04-03T07:11:05;5.80;99.90
20670;DHT22;10494;50.868;4.180;2023-04-03T07:13:31;6.10;99.90
20670;DHT22;10494;50.868;4.180;2023-04-03T07:15:57;5.90;99.90
20670;DHT22;10494;50.868;4.180;2023-04-03T07:18:23;6.20;99.90
20670;DHT22;10494;50.868;4.180;2023-04-03T07:20:49;5.90;99.90
20670;DHT22;10494;50.868;4.180;2023-04-03T07:23:15;5.60;99.90
20670;DHT22;10494;50.868;4.180;2023-04-03T07:25:45;5.80;99.90
20670;DHT22;10494;50.868;4.180;2023-04-03T07:28:12;6.30;99.90
20670;DHT22;10494;50.868;4.180;2023-04-03T07:30:49;6.90;99.90
20670;DHT22;10494;50.868;4.180;2023-04-03T07:33:16;7.20;99.90
20670;DHT22;10494;50.868;4.180;2023-04-03T07:35:43;7.40;99.90
20670;DHT22;10494;50.868;4.180;2023-04-03T07:38:09;8.10;99.90
20670;DHT22;10494;50.868;4.180;2023-04-03T07:40:35;9.10;99.90
20670;DHT22;10494;50.868;4.180;2023-04-03T07:43:01;9.40;99.90
20670;DHT22;10494;50.868;4.180;2023-04-03T07:45:28;9.80;99.90
20670;DHT22;10494;50.868;4.180;2023-04-03T07:47:53;10.70;99.90
20670;DHT22;10494;50.868;4.180;2023-04-03T07:50:19;10.90;99.90
20670;DHT22;10494;50.868;4.180;2023-04-03T07:52:45;12.20;99.90
20670;DHT22;10494;50.868;4.180;2023-04-03T07:55:11;12.80;99.90
20670;DHT22;10494;50.868;4.180;2023-04-03T07:57:37;13.40;99.90
20670;DHT22;10494;50.868;4.180;2023-04-03T08:00:06;13.70;99.90
20670;DHT22;10494;50.868;4.180;2023-04-03T08:02:32;13.80;99.90
20670;DHT22;10494;50.868;4.180;2023-04-03T08:04:58;14.10;99.90
20670;DHT22;10494;50.868;4.180;2023-04-03T08:07:24;14.30;99.90
20670;DHT22;10494;50.868;4.180;2023-04-03T08:09:50;14.10;99.90
20670;DHT22;10494;50.868;4.180;2023-04-03T08:12:16;14.60;99.90
20670;DHT22;10494;50.868;4.180;2023-04-03T08:14:41;14.80;99.90
20670;DHT22;10494;50.868;4.180;2023-04-03T08:17:08;13.20;99.90
20670;DHT22;10494;50.868;4.180;2023-04-03T08:19:40;13.60;99.90
20670;DHT22;10494;50.868;4.180;2023-04-03T08:22:06;15.00;99.90
20670;DHT22;10494;50.868;4.180;2023-04-03T08:24:33;15.70;99.90
20670;DHT22;10494;50.868;4.180;2023-04-03T08:26:58;16.30;99.90
20670;DHT22;10494;50.868;4.180;2023-04-03T08:29:24;15.70;99.90
20670;DHT22;10494;50.868;4.180;2023-04-03T08:31:50;13.00;99.90
20670;DHT22;10494;50.868;4.180;2023-04-03T08:34:16;13.00;99.90
20670;DHT22;10494;50.868;4.180;2023-04-03T08:36:43;13.30;99.90
20670;DHT22;10494;50.868;4.180;2023-04-03T08:39:09;12.40;99.90
20670;DHT22;10494;50.868;4.180;2023-04-03T08:41:37;12.90;99.90
20670;DHT22;10494;50.868;4.180;2023-04-03T08:47:36;13.90;99.90
20670;DHT22;10494;50.868;4.180;2023-04-03T08:50:02;13.10;99.90
20670;DHT22;10494;50.868;4.180;2023-04-03T08:52:38;12.10;99.90
20670;DHT22;10494;50.868;4.180;2023-04-03T08:55:13;12.70;99.90
20670;DHT22;10494;50.868;4.180;2023-04-03T08:57:44;11.30;99.90
20670;DHT22;10494;50.868;4.180;2023-04-03T09:02:48;11.10;99.90
20670;DHT22;10494;50.868;4.180;2023-04-03T09:05:17;9.70;99.90
20670;DHT22;10494;50.868;4.180;2023-04-03T09:07:57;10.00;99.90
20670;DHT22;10494;50.868;4.180;2023-04-03T09:10:28;11.50;99.90
20670;DHT22;10494;50.868;4.180;2023-04-03T09:13:22;12.20;99.90
20670;DHT22;10494;50.868;4.180;2023-04-03T09:15:50;13.40;99.90
20670;DHT22;10494;50.868;4.180;2023-04-03T09:18:32;13.30;99.90
20670;DHT22;10494;50.868;4.180;2023-04-03T09:21:20;13.00;99.90
20670;DHT22;10494;50.868;4.180;2023-04-03T09:26:39;12.60;99.90
20670;DHT22;10494;50.868;4.180;2023-04-03T09:29:07;12.50;99.90
20670;DHT22;10494;50.868;4.180;2023-04-03T09:31:43;12.20;99.90
20670;DHT22;10494;50.868;4.180;2023-04-03T09:34:37;12.70;99.90
20670;DHT22;10494;50.868;4.180;2023-04-03T09:37:04;13.60;98.10
20670;DHT22;10494;50.868;4.180;2023-04-03T09:39:53;13.80;97.40
20670;DHT22;10494;50.868;4.180;2023-04-03T09:42:21;12.70;97.60
20670;DHT22;10494;50.868;4.180;2023-04-03T09:44:59;12.30;99.90
20670;DHT22;10494;50.868;4.180;2023-04-03T09:52:41;12.90;96.70
20670;DHT22;10494;50.868;4.180;2023-04-03T09:57:47;13.90;93.80
20670;DHT22;10494;50.868;4.180;2023-04-03T10:00:25;13.60;93.10
20670;DHT22;10494;50.868;4.180;2023-04-03T10:02:54;13.60;95.70
20670;DHT22;10494;50.868;4.180;2023-04-03T10:10:38;13.90;92.80
20670;DHT22;10494;50.868;4.180;2023-04-03T10:15:44;14.10;92.20
20670;DHT22;10494;50.868;4.180;2023-04-03T10:20:55;14.00;90.90
20670;DHT22;10494;50.868;4.180;2023-04-03T10:23:28;14.10;88.60
20670;DHT22;10494;50.868;4.180;2023-04-03T10:32:02;14.10;84.90
20670;DHT22;10494;50.868;4.180;2023-04-03T10:34:33;13.90;86.70
20670;DHT22;10494;50.868;4.180;2023-04-03T10:37:21;13.30;90.00
20670;DHT22;10494;50.868;4.180;2023-04-03T10:40:15;12.80;91.50
20670;DHT22;10494;50.868;4.180;2023-04-03T10:45:40;13.50;89.90
20670;DHT22;10494;50.868;4.180;2023-04-03T10:56:19;12.90;87.60
20670;DHT22;10494;50.868;4.180;2023-04-03T11:01:33;11.40;92.10
20670;DHT22;10494;50.868;4.180;2023-04-03T11:04:02;10.90;91.20
20670;DHT22;10494;50.868;4.180;2023-04-03T11:06:39;10.90;93.00
20670;DHT22;10494;50.868;4.180;2023-04-03T11:09:22;10.50;94.50
20670;DHT22;10494;50.868;4.180;2023-04-03T11:11:48;10.90;94.40
20670;DHT22;10494;50.868;4.180;2023-04-03T11:14:26;11.40;96.10
20670;DHT22;10494;50.868;4.180;2023-04-03T11:22:39;11.70;93.50
20670;DHT22;10494;50.868;4.180;2023-04-03T11:27:44;11.40;91.30
20670;DHT22;10494;50.868;4.180;2023-04-03T11:36:19;11.30;87.60
20670;DHT22;10494;50.868;4.180;2023-04-03T11:38:46;11.10;90.70
20670;DHT22;10494;50.868;4.180;2023-04-03T11:41:13;10.50;89.60
20670;DHT22;10494;50.868;4.180;2023-04-03T11:46:22;10.30;90.60
20670;DHT22;10494;50.868;4.180;2023-04-03T11:48:50;10.60;92.30
20670;DHT22;10494;50.868;4.180;2023-04-03T11:53:54;11.10;94.40
20670;DHT22;10494;50.868;4.180;2023-04-03T12:01:52;10.40;92.90
20670;DHT22;10494;50.868;4.180;2023-04-03T12:04:21;10.70;92.30
20670;DHT22;10494;50.868;4.180;2023-04-03T12:09:33;10.70;89.30
20670;DHT22;10494;50.868;4.180;2023-04-03T12:12:01;10.90;85.80
20670;DHT22;10494;50.868;4.180;2023-04-03T12:14:46;11.00;86.20
20670;DHT22;10494;50.868;4.180;2023-04-03T12:17:22;10.90;90.50
20670;DHT22;10494;50.868;4.180;2023-04-03T12:19:48;11.10;87.60
20670;DHT22;10494;50.868;4.180;2023-04-03T12:22:16;11.10;87.10
20670;DHT22;10494;50.868;4.180;2023-04-03T12:24:44;11.20;90.70
20670;DHT22;10494;50.868;4.180;2023-04-03T12:27:26;11.20;89.20
20670;DHT22;10494;50.868;4.180;2023-04-03T12:38:30;11.10;90.90
20670;DHT22;10494;50.868;4.180;2023-04-03T12:46:33;11.00;90.30
20670;DHT22;10494;50.868;4.180;2023-04-03T12:49:01;11.10;90.30
20670;DHT22;10494;50.868;4.180;2023-04-03T12:51:41;11.20;88.40
20670;DHT22;10494;50.868;4.180;2023-04-03T12:54:16;10.50;88.30
20670;DHT22;10494;50.868;4.180;2023-04-03T12:56:43;10.60;88.80
20670;DHT22;10494;50.868;4.180;2023-04-03T12:59:23;10.90;89.50
20670;DHT22;10494;50.868;4.180;2023-04-03T13:02:00;11.00;89.00
20670;DHT22;10494;50.868;4.180;2023-04-03T13:04:31;11.20;90.00
20670;DHT22;10494;50.868;4.180;2023-04-03T13:06:57;11.20;87.20
20670;DHT22;10494;50.868;4.180;2023-04-03T13:09:25;11.30;85.90
20670;DHT22;10494;50.868;4.180;2023-04-03T13:12:14;11.30;86.30
20670;DHT22;10494;50.868;4.180;2023-04-03T13:14:40;11.40;83.90
20670;DHT22;10494;50.868;4.180;2023-04-03T13:17:16;11.30;82.30
20670;DHT22;10494;50.868;4.180;2023-04-03T13:19:43;11.30;85.50
20670;DHT22;10494;50.868;4.180;2023-04-03T13:22:24;11.40;78.20
20670;DHT22;10494;50.868;4.180;2023-04-03T13:24:52;11.10;79.10
20670;DHT22;10494;50.868;4.180;2023-04-03T13:27:19;11.20;80.30
20670;DHT22;10494;50.868;4.180;2023-04-03T13:29:52;11.40;75.70
20670;DHT22;10494;50.868;4.180;2023-04-03T13:32:23;11.40;75.80
20670;DHT22;10494;50.868;4.180;2023-04-03T13:34:50;11.40;73.40
20670;DHT22;10494;50.868;4.180;2023-04-03T13:37:28;11.40;74.20
20670;DHT22;10494;50.868;4.180;2023-04-03T13:40:13;11.60;70.70
20670;DHT22;10494;50.868;4.180;2023-04-03T13:42:40;11.50;75.20
20670;DHT22;10494;50.868;4.180;2023-04-03T13:45:21;11.60;73.30
20670;DHT22;10494;50.868;4.180;2023-04-03T13:47:50;11.50;73.00
20670;DHT22;10494;50.868;4.180;2023-04-03T13:50:23;11.30;70.10
20670;DHT22;10494;50.868;4.180;2023-04-03T13:52:52;11.40;73.70
20670;DHT22;10494;50.868;4.180;2023-04-03T13:57:55;10.80;72.00
20670;DHT22;10494;50.868;4.180;2023-04-03T14:00:33;11.10;76.30
20670;DHT22;10494;50.868;4.180;2023-04-03T14:02:59;11.30;72.70
20670;DHT22;10494;50.868;4.180;2023-04-03T14:05:25;11.00;71.90
20670;DHT22;10494;50.868;4.180;2023-04-03T14:07:53;11.20;73.70
20670;DHT22;10494;50.868;4.180;2023-04-03T14:10:19;11.50;73.40
20670;DHT22;10494;50.868;4.180;2023-04-03T14:12:45;11.20;73.30
20670;DHT22;10494;50.868;4.180;2023-04-03T14:15:24;11.30;78.80
20670;DHT22;10494;50.868;4.180;2023-04-03T14:17:51;11.60;75.50
20670;DHT22;10494;50.868;4.180;2023-04-03T14:20:19;11.40;74.30
20670;DHT22;10494;50.868;4.180;2023-04-03T14:22:47;11.40;72.40
20670;DHT22;10494;50.868;4.180;2023-04-03T14:25:15;11.50;75.20
20670;DHT22;10494;50.868;4.180;2023-04-03T14:27:46;11.60;71.90
20670;DHT22;10494;50.868;4.180;2023-04-03T14:32:47;11.70;76.50
20670;DHT22;10494;50.868;4.180;2023-04-03T14:35:14;11.80;79.70
20670;DHT22;10494;50.868;4.180;2023-04-03T14:37:39;11.80;77.90
20670;DHT22;10494;50.868;4.180;2023-04-03T14:40:07;11.90;78.10
20670;DHT22;10494;50.868;4.180;2023-04-03T14:42:36;11.60;76.80
20670;DHT22;10494;50.868;4.180;2023-04-03T14:45:05;11.80;78.50
20670;DHT22;10494;50.868;4.180;2023-04-03T14:47:32;11.60;76.20
20670;DHT22;10494;50.868;4.180;2023-04-03T14:50:00;11.70;75.70
20670;DHT22;10494;50.868;4.180;2023-04-03T14:52:29;12.00;72.80
20670;DHT22;10494;50.868;4.180;2023-04-03T14:54:56;12.10;74.50
20670;DHT22;10494;50.868;4.180;2023-04-03T14:57:24;12.10;74.10
20670;DHT22;10494;50.868;4.180;2023-04-03T14:59:50;11.70;71.90
20670;DHT22;10494;50.868;4.180;2023-04-03T15:04:47;10.80;65.70
20670;DHT22;10494;50.868;4.180;2023-04-03T15:07:13;11.10;70.10
20670;DHT22;10494;50.868;4.180;2023-04-03T15:09:38;11.30;69.20
20670;DHT22;10494;50.868;4.180;2023-04-03T15:12:04;11.40;70.00
20670;DHT22;10494;50.868;4.180;2023-04-03T15:14:30;11.70;68.40
20670;DHT22;10494;50.868;4.180;2023-04-03T15:16:55;11.50;68.30
20670;DHT22;10494;50.868;4.180;2023-04-03T15:19:21;11.60;71.10
20670;DHT22;10494;50.868;4.180;2023-04-03T15:21:46;11.60;67.60
20670;DHT22;10494;50.868;4.180;2023-04-03T15:24:12;11.60;65.70
20670;DHT22;10494;50.868;4.180;2023-04-03T15:26:38;11.70;66.20
20670;DHT22;10494;50.868;4.180;2023-04-03T15:29:04;11.30;64.70
20670;DHT22;10494;50.868;4.180;2023-04-03T15:31:30;11.20;68.50
20670;DHT22;10494;50.868;4.180;2023-04-03T15:33:56;11.20;66.40
20670;DHT22;10494;50.868;4.180;2023-04-03T15:36:22;11.10;66.50
20670;DHT22;10494;50.868;4.180;2023-04-03T15:38:47;11.10;66.10
20670;DHT22;10494;50.868;4.180;2023-04-03T15:41:13;11.00;65.80
20670;DHT22;10494;50.868;4.180;2023-04-03T15:43:39;11.30;65.50
20670;DHT22;10494;50.868;4.180;2023-04-03T15:46:04;11.20;66.70
20670;DHT22;10494;50.868;4.180;2023-04-03T15:48:30;11.20;66.50
20670;DHT22;10494;50.868;4.180;2023-04-03T15:50:56;11.40;66.50
20670;DHT22;10494;50.868;4.180;2023-04-03T15:53:22;11.50;66.50
20670;DHT22;10494;50.868;4.180;2023-04-03T15:55:47;11.50;65.70
20670;DHT22;10494;50.868;4.180;2023-04-03T15:58:13;11.20;66.20
20670;DHT22;10494;50.868;4.180;2023-04-03T16:00:38;11.10;65.30
20670;DHT22;10494;50.868;4.180;2023-04-03T16:03:08;10.90;66.30
20670;DHT22;10494;50.868;4.180;2023-04-03T16:05:35;11.10;66.30
20670;DHT22;10494;50.868;4.180;2023-04-03T16:08:02;11.20;67.20
20670;DHT22;10494;50.868;4.180;2023-04-03T16:10:28;11.20;66.20
20670;DHT22;10494;50.868;4.180;2023-04-03T16:12:54;11.30;66.60
20670;DHT22;10494;50.868;4.180;2023-04-03T16:15:20;11.20;65.20
20670;DHT22;10494;50.868;4.180;2023-04-03T16:17:45;11.10;68.60
20670;DHT22;10494;50.868;4.180;2023-04-03T16:20:14;11.20;67.80
20670;DHT22;10494;50.868;4.180;2023-04-03T16:22:40;11.20;67.10
20670;DHT22;10494;50.868;4.180;2023-04-03T16:25:07;11.10;67.50
20670;DHT22;10494;50.868;4.180;2023-04-03T16:27:33;11.30;67.10
20670;DHT22;10494;50.868;4.180;2023-04-03T16:29:59;11.40;67.20
20670;DHT22;10494;50.868;4.180;2023-04-03T16:32:27;11.20;66.60
20670;DHT22;10494;50.868;4.180;2023-04-03T16:34:54;11.10;64.80
20670;DHT22;10494;50.868;4.180;2023-04-03T16:37:20;11.00;65.40
20670;DHT22;10494;50.868;4.180;2023-04-03T16:39:45;11.20;66.70
20670;DHT22;10494;50.868;4.180;2023-04-03T16:42:11;11.10;67.30
20670;DHT22;10494;50.868;4.180;2023-04-03T16:44:37;11.20;68.30
20670;DHT22;10494;50.868;4.180;2023-04-03T16:47:03;11.20;69.10
20670;DHT22;10494;50.868;4.180;2023-04-03T16:49:28;11.00;67.60
20670;DHT22;10494;50.868;4.180;2023-04-03T16:51:58;10.70;67.40
20670;DHT22;10494;50.868;4.180;2023-04-03T16:54:24;10.80;67.00
20670;DHT22;10494;50.868;4.180;2023-04-03T16:56:50;10.90;67.50
20670;DHT22;10494;50.868;4.180;2023-04-03T16:59:15;10.90;67.60
20670;DHT22;10494;50.868;4.180;2023-04-03T17:01:41;10.90;67.90
20670;DHT22;10494;50.868;4.180;2023-04-03T17:04:07;10.90;67.90
20670;DHT22;10494;50.868;4.180;2023-04-03T17:06:32;10.90;69.70
20670;DHT22;10494;50.868;4.180;2023-04-03T17:08:58;10.90;69.30
20670;DHT22;10494;50.868;4.180;2023-04-03T17:11:23;11.00;69.50
20670;DHT22;10494;50.868;4.180;2023-04-03T17:13:50;10.90;68.30
20670;DHT22;10494;50.868;4.180;2023-04-03T17:16:16;10.80;70.00
20670;DHT22;10494;50.868;4.180;2023-04-03T17:18:42;10.70;70.10
20670;DHT22;10494;50.868;4.180;2023-04-03T17:21:08;10.60;71.20
20670;DHT22;10494;50.868;4.180;2023-04-03T17:23:36;10.70;72.90
20670;DHT22;10494;50.868;4.180;2023-04-03T17:26:03;10.80;72.60
20670;DHT22;10494;50.868;4.180;2023-04-03T17:28:29;10.60;73.40
20670;DHT22;10494;50.868;4.180;2023-04-03T17:30:59;10.60;71.80
20670;DHT22;10494;50.868;4.180;2023-04-03T17:33:27;10.60;72.40
20670;DHT22;10494;50.868;4.180;2023-04-03T17:36:00;10.30;74.10
20670;DHT22;10494;50.868;4.180;2023-04-03T17:38:27;10.20;74.10
20670;DHT22;10494;50.868;4.180;2023-04-03T17:41:01;10.30;75.60
20670;DHT22;10494;50.868;4.180;2023-04-03T17:43:28;10.40;75.20
20670;DHT22;10494;50.868;4.180;2023-04-03T17:45:55;10.30;75.90
20670;DHT22;10494;50.868;4.180;2023-04-03T17:48:28;10.20;76.30
20670;DHT22;10494;50.868;4.180;2023-04-03T17:50:54;10.10;76.10
20670;DHT22;10494;50.868;4.180;2023-04-03T17:53:19;10.10;76.30
20670;DHT22;10494;50.868;4.180;2023-04-03T17:55:45;10.00;76.80
20670;DHT22;10494;50.868;4.180;2023-04-03T17:58:11;10.00;78.30
20670;DHT22;10494;50.868;4.180;2023-04-03T18:00:37;10.20;78.70
20670;DHT22;10494;50.868;4.180;2023-04-03T18:03:03;10.10;79.60
20670;DHT22;10494;50.868;4.180;2023-04-03T18:05:29;9.90;80.70
20670;DHT22;10494;50.868;4.180;2023-04-03T18:07:55;9.80;81.90
20670;DHT22;10494;50.868;4.180;2023-04-03T18:10:22;9.50;82.60
20670;DHT22;10494;50.868;4.180;2023-04-03T18:12:48;9.30;84.40
20670;DHT22;10494;50.868;4.180;2023-04-03T18:15:13;9.20;86.00
20670;DHT22;10494;50.868;4.180;2023-04-03T18:17:39;9.20;86.90
20670;DHT22;10494;50.868;4.180;2023-04-03T18:20:05;8.80;87.90
20670;DHT22;10494;50.868;4.180;2023-04-03T18:22:31;8.70;90.20
20670;DHT22;10494;50.868;4.180;2023-04-03T18:24:57;8.60;90.60
20670;DHT22;10494;50.868;4.180;2023-04-03T18:27:25;8.80;90.60
20670;DHT22;10494;50.868;4.180;2023-04-03T18:30:03;8.90;90.60
20670;DHT22;10494;50.868;4.180;2023-04-03T18:32:31;8.90;90.70
20670;DHT22;10494;50.868;4.180;2023-04-03T18:34:56;9.00;90.80
20670;DHT22;10494;50.868;4.180;2023-04-03T18:37:22;8.80;90.80
20670;DHT22;10494;50.868;4.180;2023-04-03T18:39:48;8.80;91.10
20670;DHT22;10494;50.868;4.180;2023-04-03T18:42:16;8.60;91.60
20670;DHT22;10494;50.868;4.180;2023-04-03T18:44:43;8.60;91.70
20670;DHT22;10494;50.868;4.180;2023-04-03T18:47:10;8.40;92.60
20670;DHT22;10494;50.868;4.180;2023-04-03T18:49:38;8.20;93.30
20670;DHT22;10494;50.868;4.180;2023-04-03T18:52:04;8.10;94.40
20670;DHT22;10494;50.868;4.180;2023-04-03T18:54:30;8.10;94.30
20670;DHT22;10494;50.868;4.180;2023-04-03T18:56:56;8.00;94.30
20670;DHT22;10494;50.868;4.180;2023-04-03T18:59:22;8.10;94.70
20670;DHT22;10494;50.868;4.180;2023-04-03T19:01:48;8.10;94.90
20670;DHT22;10494;50.868;4.180;2023-04-03T19:04:14;7.70;95.20
20670;DHT22;10494;50.868;4.180;2023-04-03T19:06:39;7.80;95.80
20670;DHT22;10494;50.868;4.180;2023-04-03T19:09:06;7.80;96.00
20670;DHT22;10494;50.868;4.180;2023-04-03T19:11:32;7.50;96.80
20670;DHT22;10494;50.868;4.180;2023-04-03T19:13:58;7.20;98.10
20670;DHT22;10494;50.868;4.180;2023-04-03T19:16:24;7.20;99.00
20670;DHT22;10494;50.868;4.180;2023-04-03T19:18:50;7.20;99.80